Time;durP1;ratioP1;P1;durP2;ratioP2;P2;SDS_P1;SDS_P2;PMS_P1;PMS_P2;Temp;Humidity;BMP_temperature;BMP_pressure;BME280_temperature;BME280_humidity;BME280_pressure;Samples;Min_cycle;Max_cycle;Signal;HPM_P1;HPM_P2
2021/12/22 00:01:35;;;;;;;70.63;35.72;;;;;;;;;;5012081;28;20042;-73
2021/12/22 00:04:03;;;;;;;72.13;35.97;;;;;;;;;;5012600;28;20471;-73
2021/12/22 00:06:57;;;;;;;74.10;38.05;;;;;;;;;;5013802;28;20120;-73
2021/12/22 00:09:30;;;;;;;81.45;39.17;;;;;;;;;;5013566;28;20122;-73
2021/12/22 00:12:01;;;;;;;87.78;41.97;;;;;;;;;;5011998;28;20485;-74
2021/12/22 00:14:33;;;;;;;92.70;42.67;;;;;;;;;;5013260;28;20068;-73
2021/12/22 00:17:05;;;;;;;120.00;55.08;;;;;;;;;;5012350;28;20037;-73
2021/12/22 00:19:33;;;;;;;119.68;57.70;;;;;;;;;;5013846;28;20038;-73
2021/12/22 00:22:09;;;;;;;115.10;54.55;;;;;;;;;;5012027;28;20046;-73
2021/12/22 00:24:36;;;;;;;101.18;50.75;;;;;;;;;;5013421;28;20077;-74
2021/12/22 00:27:29;;;;;;;106.15;50.88;;;;;;;;;;5013458;28;20061;-74
2021/12/22 00:30:24;;;;;;;96.47;46.88;;;;;;;;;;5013309;28;20064;-74
2021/12/22 00:33:17;;;;;;;89.95;45.47;;;;;;;;;;4995705;28;20076;-74
2021/12/22 00:35:49;;;;;;;86.72;44.40;;;;;;;;;;5011859;28;20045;-74
2021/12/22 00:38:18;;;;;;;89.57;43.95;;;;;;;;;;5012162;28;20070;-74
2021/12/22 00:41:11;;;;;;;78.75;40.38;;;;;;;;;;5013319;28;20034;-74
2021/12/22 00:47:26;;;;;;;75.17;36.83;;;;;;;;;;5011778;28;20387;-74
2021/12/22 00:49:54;;;;;;;76.63;36.47;;;;;;;;;;5012087;28;20493;-74
2021/12/22 00:52:27;;;;;;;72.80;37.35;;;;;;;;;;5013344;28;20038;-74
2021/12/22 00:55:03;;;;;;;71.25;36.67;;;;;;;;;;5012985;28;20097;-75
2021/12/22 00:57:33;;;;;;;76.20;37.35;;;;;;;;;;5011572;28;20042;-74
2021/12/22 01:00:06;;;;;;;72.72;37.80;;;;;;;;;;5015864;28;20042;-74
2021/12/22 01:02:36;;;;;;;69.90;36.00;;;;;;;;;;5015633;28;20117;-74
2021/12/22 01:05:06;;;;;;;81.00;36.88;;;;;;;;;;5015455;28;20061;-74
2021/12/22 01:07:35;;;;;;;70.65;35.65;;;;;;;;;;5016860;28;20084;-74
2021/12/22 01:10:24;;;;;;;77.20;37.17;;;;;;;;;;5016772;28;20049;-74
2021/12/22 01:13:00;;;;;;;84.53;39.05;;;;;;;;;;5016826;28;20096;-74
2021/12/22 01:15:34;;;;;;;81.13;37.88;;;;;;;;;;5015342;28;20141;-74
2021/12/22 01:18:10;;;;;;;69.68;33.70;;;;;;;;;;5014896;28;20100;-74
2021/12/22 01:23:34;;;;;;;61.60;30.15;;;;;;;;;;5016391;28;20047;-74
2021/12/22 01:26:08;;;;;;;58.58;29.55;;;;;;;;;;5016435;28;20073;-74
2021/12/22 01:28:41;;;;;;;47.47;23.85;;;;;;;;;;5015673;28;20397;-74
2021/12/22 01:31:16;;;;;;;46.00;23.73;;;;;;;;;;5016332;28;20084;-74
2021/12/22 01:33:48;;;;;;;46.28;21.35;;;;;;;;;;5015076;28;20094;-74
2021/12/22 01:36:16;;;;;;;36.58;19.65;;;;;;;;;;5014783;28;20453;-74
2021/12/22 01:38:48;;;;;;;30.63;16.13;;;;;;;;;;5014663;28;20049;-74
2021/12/22 01:41:31;;;;;;;41.70;21.27;;;;;;;;;;5016339;28;20057;-74
2021/12/22 01:44:23;;;;;;;50.85;23.88;;;;;;;;;;5014519;28;20156;-74
2021/12/22 01:52:40;;;;;;;63.03;30.35;;;;;;;;;;5015351;28;20096;-74
2021/12/22 01:55:29;;;;;;;59.92;30.10;;;;;;;;;;5014438;28;20119;-74
2021/12/22 01:58:21;;;;;;;60.55;30.80;;;;;;;;;;5014268;28;20052;-74
2021/12/22 02:00:54;;;;;;;62.53;30.73;;;;;;;;;;4998400;28;20049;-74
2021/12/22 02:03:41;;;;;;;62.92;30.48;;;;;;;;;;5014256;28;20034;-74
2021/12/22 02:06:11;;;;;;;61.03;30.27;;;;;;;;;;5015605;28;20076;-74
2021/12/22 02:11:51;;;;;;;56.38;30.02;;;;;;;;;;5014267;28;20046;-74
2021/12/22 02:14:45;;;;;;;63.63;32.70;;;;;;;;;;5013940;28;20057;-74
2021/12/22 02:17:17;;;;;;;62.50;31.35;;;;;;;;;;5015356;28;20042;-74
2021/12/22 02:19:51;;;;;;;64.25;29.42;;;;;;;;;;5015163;28;20116;-74
2021/12/22 02:22:19;;;;;;;61.63;31.17;;;;;;;;;;5015295;28;20099;-74
2021/12/22 02:24:49;;;;;;;59.17;29.52;;;;;;;;;;5013895;28;20052;-74
2021/12/22 02:27:38;;;;;;;52.63;26.27;;;;;;;;;;5015302;28;20049;-74
2021/12/22 02:30:15;;;;;;;45.10;21.88;;;;;;;;;;5013761;28;20057;-74
2021/12/22 02:35:39;;;;;;;49.95;25.05;;;;;;;;;;5015077;28;20484;-74
2021/12/22 02:38:18;;;;;;;52.40;25.75;;;;;;;;;;5015389;28;20046;-73
2021/12/22 02:40:49;;;;;;;54.58;26.00;;;;;;;;;;5013947;28;20480;-74
2021/12/22 02:43:21;;;;;;;54.88;27.02;;;;;;;;;;5013751;28;20151;-74
2021/12/22 02:45:52;;;;;;;55.35;27.60;;;;;;;;;;5014867;28;20121;-74
2021/12/22 02:48:23;;;;;;;56.75;28.15;;;;;;;;;;5013699;28;20042;-74
2021/12/22 02:50:56;;;;;;;59.65;27.27;;;;;;;;;;5013526;28;20088;-74
2021/12/22 02:57:18;;;;;;;51.72;24.85;;;;;;;;;;5014972;28;20041;-74
2021/12/22 03:09:38;;;;;;;47.05;23.38;;;;;;;;;;5014376;28;20491;-73
2021/12/22 03:12:33;;;;;;;40.53;20.60;;;;;;;;;;5012901;28;20136;-74
2021/12/22 03:15:01;;;;;;;36.40;17.88;;;;;;;;;;5012799;28;20038;-74
2021/12/22 03:17:29;;;;;;;35.10;17.35;;;;;;;;;;5013143;28;20054;-74
2021/12/22 03:20:01;;;;;;;33.05;18.23;;;;;;;;;;5013065;28;20054;-74
2021/12/22 03:22:42;;;;;;;38.13;17.35;;;;;;;;;;5012365;28;20065;-73
2021/12/22 03:25:17;;;;;;;33.67;17.50;;;;;;;;;;5013927;28;20042;-74
2021/12/22 03:28:10;;;;;;;37.47;17.38;;;;;;;;;;5014277;28;20038;-74
2021/12/22 03:30:37;;;;;;;31.38;16.10;;;;;;;;;;5012365;28;20161;-74
2021/12/22 03:33:06;;;;;;;35.42;18.08;;;;;;;;;;5014336;28;20042;-74
2021/12/22 03:35:38;;;;;;;41.35;18.98;;;;;;;;;;5012530;28;20082;-74
2021/12/22 03:38:07;;;;;;;41.90;20.63;;;;;;;;;;5014115;28;20058;-74
2021/12/22 03:40:35;;;;;;;38.70;17.80;;;;;;;;;;5012746;28;20054;-74
2021/12/22 03:43:12;;;;;;;32.28;16.42;;;;;;;;;;5012702;28;20506;-74
2021/12/22 03:45:40;;;;;;;34.30;17.05;;;;;;;;;;5013656;28;20184;-74
2021/12/22 03:48:16;;;;;;;35.05;16.13;;;;;;;;;;5013861;28;20053;-74
2021/12/22 03:50:47;;;;;;;39.55;17.20;;;;;;;;;;5012320;28;20046;-74
2021/12/22 03:53:16;;;;;;;35.83;16.58;;;;;;;;;;5012457;28;20140;-74
2021/12/22 03:55:48;;;;;;;35.67;16.88;;;;;;;;;;5012463;28;20046;-74
2021/12/22 03:58:16;;;;;;;44.45;19.00;;;;;;;;;;5012343;28;20551;-74
2021/12/22 04:00:51;;;;;;;41.33;18.42;;;;;;;;;;5013784;28;20041;-74
2021/12/22 04:03:51;;;;;;;43.28;18.48;;;;;;;;;;5013423;28;20552;-74
2021/12/22 04:10:00;;;;;;;37.30;16.75;;;;;;;;;;5013745;28;20538;-74
2021/12/22 04:12:53;;;;;;;42.42;19.40;;;;;;;;;;5013155;28;20078;-74
2021/12/22 04:15:54;;;;;;;46.15;19.48;;;;;;;;;;4995452;28;20050;-74
2021/12/22 04:18:47;;;;;;;46.35;20.52;;;;;;;;;;5011822;28;20141;-74
2021/12/22 04:21:18;;;;;;;44.88;20.42;;;;;;;;;;5013620;28;20037;-74
2021/12/22 04:23:46;;;;;;;48.30;22.63;;;;;;;;;;4995865;28;20450;-74
2021/12/22 04:26:19;;;;;;;50.38;23.20;;;;;;;;;;4995938;28;20038;-74
2021/12/22 04:28:49;;;;;;;59.70;26.63;;;;;;;;;;5012701;28;20459;-74
2021/12/22 04:31:20;;;;;;;63.70;29.15;;;;;;;;;;5012057;28;20057;-74
2021/12/22 04:33:50;;;;;;;65.90;28.73;;;;;;;;;;5012656;28;20455;-74
2021/12/22 04:36:22;;;;;;;59.95;28.83;;;;;;;;;;5016104;28;20068;-74
2021/12/22 04:38:54;;;;;;;61.78;27.20;;;;;;;;;;5016336;28;20042;-74
2021/12/22 04:41:27;;;;;;;54.67;24.83;;;;;;;;;;5017216;28;20042;-74
2021/12/22 04:43:56;;;;;;;53.33;24.45;;;;;;;;;;4999473;28;20042;-74
2021/12/22 04:46:26;;;;;;;57.72;26.60;;;;;;;;;;5015951;28;20042;-73
2021/12/22 04:49:12;;;;;;;59.63;26.90;;;;;;;;;;5015684;28;20053;-74
2021/12/22 04:52:07;;;;;;;60.45;26.80;;;;;;;;;;5003373;28;20053;-74
2021/12/22 04:54:46;;;;;;;52.67;25.42;;;;;;;;;;4999094;28;20132;-73
2021/12/22 04:57:39;;;;;;;61.92;26.08;;;;;;;;;;5015219;28;20084;-74
2021/12/22 05:00:08;;;;;;;52.17;25.25;;;;;;;;;;5015712;28;20048;-74
2021/12/22 05:02:38;;;;;;;57.75;26.58;;;;;;;;;;4999297;28;20042;-74
2021/12/22 05:05:07;;;;;;;63.90;27.20;;;;;;;;;;4999017;28;20050;-73
2021/12/22 05:07:36;;;;;;;62.63;27.23;;;;;;;;;;4983230;28;20404;-73
2021/12/22 05:10:05;;;;;;;60.97;26.70;;;;;;;;;;4999101;28;20042;-74
2021/12/22 05:12:37;;;;;;;51.92;23.65;;;;;;;;;;4999116;28;20400;-74
2021/12/22 05:15:06;;;;;;;46.63;24.00;;;;;;;;;;5016450;28;20038;-73
2021/12/22 05:20:17;;;;;;;92.50;36.30;;;;;;;;;;4998720;28;20046;-74
2021/12/22 05:22:53;;;;;;;84.88;35.17;;;;;;;;;;5015227;28;20128;-73
2021/12/22 05:25:21;;;;;;;85.90;34.47;;;;;;;;;;4998439;28;20096;-72
2021/12/22 05:27:48;;;;;;;76.95;31.50;;;;;;;;;;5015667;28;20053;-73
2021/12/22 05:30:17;;;;;;;68.50;29.20;;;;;;;;;;5014934;28;20049;-73
2021/12/22 05:32:46;;;;;;;66.25;27.50;;;;;;;;;;5016304;28;20038;-73
2021/12/22 05:35:40;;;;;;;65.07;28.58;;;;;;;;;;5016116;28;20137;-73
2021/12/22 05:42:10;;;;;;;55.72;22.95;;;;;;;;;;5016569;28;20032;-73
2021/12/22 05:44:45;;;;;;;49.00;19.90;;;;;;;;;;5015589;28;20117;-73
2021/12/22 05:47:18;;;;;;;53.15;22.02;;;;;;;;;;5014884;28;20050;-73
2021/12/22 05:49:52;;;;;;;39.08;18.52;;;;;;;;;;5015824;28;20113;-74
2021/12/22 05:52:24;;;;;;;37.38;17.20;;;;;;;;;;5016141;28;20042;-74
2021/12/22 05:54:52;;;;;;;34.28;17.38;;;;;;;;;;5016035;28;20492;-73
2021/12/22 05:57:45;;;;;;;40.42;19.08;;;;;;;;;;4998179;28;20068;-73
2021/12/22 06:00:14;;;;;;;42.00;19.17;;;;;;;;;;5008050;28;20037;-74
2021/12/22 06:06:39;;;;;;;38.65;18.80;;;;;;;;;;5015487;28;20113;-74
2021/12/22 06:09:09;;;;;;;41.03;18.13;;;;;;;;;;5014995;28;20489;-73
2021/12/22 06:12:02;;;;;;;52.75;23.20;;;;;;;;;;4998096;28;20467;-74
2021/12/22 06:14:30;;;;;;;60.33;26.52;;;;;;;;;;4997518;28;20152;-74
2021/12/22 06:16:59;;;;;;;84.85;37.42;;;;;;;;;;5015571;28;20069;-74
2021/12/22 06:19:27;;;;;;;104.10;47.40;;;;;;;;;;4997267;28;20042;-73
2021/12/22 06:21:54;;;;;;;107.82;50.30;;;;;;;;;;4997492;28;20050;-76
2021/12/22 06:24:27;;;;;;;117.95;54.67;;;;;;;;;;4997944;28;20045;-76
2021/12/22 06:26:54;;;;;;;111.72;54.58;;;;;;;;;;5015828;28;20127;-75
2021/12/22 06:29:22;;;;;;;120.03;57.80;;;;;;;;;;5014458;28;20526;-76
2021/12/22 06:31:50;;;;;;;120.80;62.63;;;;;;;;;;5015199;28;20112;-76
2021/12/22 06:34:24;;;;;;;134.10;65.00;;;;;;;;;;4981570;28;20049;-76
2021/12/22 06:36:56;;;;;;;112.80;56.40;;;;;;;;;;5015150;28;20041;-76
2021/12/22 06:39:31;;;;;;;;;;;;;;;;;;5015280;28;20046;-76
2021/12/22 06:42:01;;;;;;;115.95;58.75;;;;;;;;;;5013849;28;20338;-75
2021/12/22 06:44:37;;;;;;;152.52;68.90;;;;;;;;;;4997400;28;20038;-76
2021/12/22 06:47:06;;;;;;;131.63;61.30;;;;;;;;;;4997517;28;20118;-76
2021/12/22 06:49:41;;;;;;;139.80;65.63;;;;;;;;;;4997308;28;20042;-75
2021/12/22 06:52:09;;;;;;;122.75;57.83;;;;;;;;;;5015475;28;20088;-75
2021/12/22 06:54:38;;;;;;;118.97;59.28;;;;;;;;;;4997254;28;20037;-75
2021/12/22 06:57:09;;;;;;;108.70;54.05;;;;;;;;;;4996232;28;20077;-74
2021/12/22 06:59:39;;;;;;;74.93;38.88;;;;;;;;;;4997404;28;20096;-75
2021/12/22 07:02:08;;;;;;;92.93;47.78;;;;;;;;;;4997288;28;20033;-74
2021/12/22 07:04:40;;;;;;;96.68;48.72;;;;;;;;;;5015253;28;20041;-75
2021/12/22 07:07:10;;;;;;;95.93;46.47;;;;;;;;;;5014593;28;20074;-74
2021/12/22 07:09:44;;;;;;;91.15;49.22;;;;;;;;;;5014855;28;20407;-74
2021/12/22 07:12:12;;;;;;;106.88;53.35;;;;;;;;;;5014325;28;20034;-75
2021/12/22 07:15:07;;;;;;;111.68;53.78;;;;;;;;;;4981206;28;20042;-75
2021/12/22 07:17:36;;;;;;;97.38;51.60;;;;;;;;;;5014600;28;20046;-74
2021/12/22 07:20:06;;;;;;;104.70;51.35;;;;;;;;;;4996498;28;20038;-75
2021/12/22 07:22:40;;;;;;;138.73;67.55;;;;;;;;;;5014273;28;20045;-75
2021/12/22 07:25:24;;;;;;;91.85;45.55;;;;;;;;;;5014393;28;20038;-75
2021/12/22 07:27:59;;;;;;;75.20;41.28;;;;;;;;;;4996272;28;20449;-75
2021/12/22 07:33:48;;;;;;;66.85;35.00;;;;;;;;;;5014103;28;20133;-75
2021/12/22 07:36:43;;;;;;;52.00;29.95;;;;;;;;;;5018235;28;20064;-75
2021/12/22 07:39:36;;;;;;;47.42;27.58;;;;;;;;;;5019878;28;20038;-75
2021/12/22 07:42:29;;;;;;;49.40;28.77;;;;;;;;;;5014391;28;20038;-75
2021/12/22 07:44:58;;;;;;;44.80;25.23;;;;;;;;;;5013988;28;20041;-76
2021/12/22 07:47:28;;;;;;;41.03;24.17;;;;;;;;;;5013833;28;20057;-75
2021/12/22 07:49:59;;;;;;;44.03;23.92;;;;;;;;;;4996116;28;20042;-74
2021/12/22 07:52:32;;;;;;;43.88;22.80;;;;;;;;;;4996435;28;20042;-75
2021/12/22 07:55:01;;;;;;;48.72;25.00;;;;;;;;;;5014082;28;20195;-75
2021/12/22 07:57:29;;;;;;;39.22;22.52;;;;;;;;;;4995919;28;20042;-75
2021/12/22 08:00:03;;;;;;;40.70;22.08;;;;;;;;;;5013966;28;20042;-75
2021/12/22 08:02:39;;;;;;;40.17;23.42;;;;;;;;;;4997423;28;20111;-75
2021/12/22 08:05:12;;;;;;;39.78;22.50;;;;;;;;;;5013375;28;20034;-75
2021/12/22 08:07:59;;;;;;;36.50;20.90;;;;;;;;;;4995636;28;20054;-76
2021/12/22 08:10:52;;;;;;;42.58;23.85;;;;;;;;;;4995823;28;20066;-74
2021/12/22 08:13:19;;;;;;;49.95;25.92;;;;;;;;;;4996101;28;20034;-75
2021/12/22 08:15:50;;;;;;;25.75;15.60;;;;;;;;;;5013301;28;20514;-75
2021/12/22 08:18:20;;;;;;;23.48;11.65;;;;;;;;;;5013700;28;20465;-75
2021/12/22 08:20:48;;;;;;;15.50;10.13;;;;;;;;;;4995588;28;20074;-75
2021/12/22 08:23:18;;;;;;;16.20;9.48;;;;;;;;;;5013243;28;20492;-75
2021/12/22 08:25:50;;;;;;;15.05;9.82;;;;;;;;;;4995618;28;20069;-75
2021/12/22 08:28:46;;;;;;;17.45;9.75;;;;;;;;;;5013664;28;20096;-75
2021/12/22 08:31:39;;;;;;;14.18;9.05;;;;;;;;;;4974734;28;20126;-75
2021/12/22 08:34:09;;;;;;;16.50;8.45;;;;;;;;;;4972993;28;20445;-75
2021/12/22 08:39:27;;;;;;;16.83;9.80;;;;;;;;;;4989360;28;20103;-76
2021/12/22 08:41:59;;;;;;;17.90;10.00;;;;;;;;;;4974293;28;20039;-76
2021/12/22 08:44:29;;;;;;;18.23;10.38;;;;;;;;;;4972924;28;20470;-75
2021/12/22 08:46:59;;;;;;;22.48;12.25;;;;;;;;;;4974016;28;20046;-75
2021/12/22 08:49:32;;;;;;;17.70;10.60;;;;;;;;;;4973031;28;20074;-75
2021/12/22 08:52:00;;;;;;;20.83;11.25;;;;;;;;;;4972889;28;20141;-75
2021/12/22 08:54:30;;;;;;;17.40;11.40;;;;;;;;;;4972744;28;20406;-76
2021/12/22 08:57:00;;;;;;;18.55;11.98;;;;;;;;;;4973333;28;20199;-75
2021/12/22 08:59:29;;;;;;;22.45;12.77;;;;;;;;;;4974711;28;20474;-75
2021/12/22 09:01:59;;;;;;;33.50;18.27;;;;;;;;;;4974014;28;20081;-75
2021/12/22 09:04:30;;;;;;;32.55;19.30;;;;;;;;;;4974389;28;20486;-76
2021/12/22 09:06:59;;;;;;;28.67;15.73;;;;;;;;;;4972828;28;20129;-76
2021/12/22 09:09:28;;;;;;;26.05;14.38;;;;;;;;;;4972526;28;20046;-75
2021/12/22 09:12:00;;;;;;;22.98;13.40;;;;;;;;;;4972725;28;20081;-76
2021/12/22 09:14:31;;;;;;;23.27;13.27;;;;;;;;;;4972727;28;20043;-76
2021/12/22 09:17:00;;;;;;;25.73;13.40;;;;;;;;;;4973180;28;20042;-77
2021/12/22 09:19:30;;;;;;;23.65;14.07;;;;;;;;;;4972182;28;20047;-76
2021/12/22 09:22:02;;;;;;;24.08;13.98;;;;;;;;;;4976194;28;20039;-76
2021/12/22 09:24:35;;;;;;;19.92;11.88;;;;;;;;;;4976235;28;20047;-76
2021/12/22 09:27:03;;;;;;;16.73;10.30;;;;;;;;;;4976470;28;20093;-76
2021/12/22 09:29:30;;;;;;;20.75;11.38;;;;;;;;;;4993609;28;20054;-76
2021/12/22 09:32:00;;;;;;;17.48;9.13;;;;;;;;;;4998702;28;20041;-76
2021/12/22 09:34:34;;;;;;;17.27;9.60;;;;;;;;;;4998670;28;20416;-76
2021/12/22 09:37:02;;;;;;;18.15;10.38;;;;;;;;;;4999036;28;20050;-76
2021/12/22 09:39:32;;;;;;;15.93;9.13;;;;;;;;;;4998550;28;20042;-76
2021/12/22 09:42:03;;;;;;;15.77;9.52;;;;;;;;;;5016470;28;20121;-77
2021/12/22 09:44:37;;;;;;;16.27;9.48;;;;;;;;;;5014863;28;20479;-75
2021/12/22 09:47:07;;;;;;;15.30;9.32;;;;;;;;;;5016186;28;20038;-75
2021/12/22 09:52:26;;;;;;;19.55;9.55;;;;;;;;;;5016779;28;20435;-76
2021/12/22 09:55:01;;;;;;;14.40;9.30;;;;;;;;;;5016100;28;20092;-75
2021/12/22 09:57:33;;;;;;;18.13;10.27;;;;;;;;;;4997958;28;20142;-76
2021/12/22 10:00:19;;;;;;;16.00;9.82;;;;;;;;;;5015779;28;20099;-76
2021/12/22 10:02:47;;;;;;;16.15;10.07;;;;;;;;;;5016843;28;20121;-76
2021/12/22 10:05:15;;;;;;;15.02;9.35;;;;;;;;;;4998435;28;20053;-76
2021/12/22 10:07:44;;;;;;;21.02;9.38;;;;;;;;;;5014389;28;20153;-75
2021/12/22 10:10:16;;;;;;;15.27;9.20;;;;;;;;;;4998355;28;20042;-76
2021/12/22 10:12:46;;;;;;;17.25;8.90;;;;;;;;;;4982234;28;20144;-77
2021/12/22 10:15:16;;;;;;;14.35;9.38;;;;;;;;;;5016100;28;20046;-76
2021/12/22 10:17:51;;;;;;;16.90;8.88;;;;;;;;;;5015946;28;20066;-77
2021/12/22 10:20:24;;;;;;;13.38;8.38;;;;;;;;;;4998576;28;20050;-76
2021/12/22 10:23:16;;;;;;;15.80;8.20;;;;;;;;;;5015373;28;20066;-76
2021/12/22 10:25:43;;;;;;;15.88;8.52;;;;;;;;;;4981439;28;20060;-76
2021/12/22 10:28:18;;;;;;;17.30;9.45;;;;;;;;;;5015450;28;20057;-76
2021/12/22 10:30:48;;;;;;;14.60;8.65;;;;;;;;;;4994463;28;20133;-75
2021/12/22 10:33:20;;;;;;;21.27;9.45;;;;;;;;;;4994275;28;20054;-75
2021/12/22 10:35:49;;;;;;;15.48;9.07;;;;;;;;;;4996311;28;20129;-75
2021/12/22 10:38:19;;;;;;;18.65;9.60;;;;;;;;;;4995423;28;20042;-76
2021/12/22 10:41:12;;;;;;;13.20;8.65;;;;;;;;;;4994075;28;20073;-75
2021/12/22 10:44:05;;;;;;;18.13;9.10;;;;;;;;;;5010567;28;20081;-75
2021/12/22 10:46:35;;;;;;;15.98;8.70;;;;;;;;;;4995524;28;20046;-76
2021/12/22 10:49:20;;;;;;;20.42;9.60;;;;;;;;;;4995176;28;20046;-75
2021/12/22 10:51:56;;;;;;;14.68;9.45;;;;;;;;;;5010296;28;20077;-76
2021/12/22 10:54:36;;;;;;;15.27;9.02;;;;;;;;;;4994088;28;20126;-76
2021/12/22 10:57:11;;;;;;;14.23;9.43;;;;;;;;;;4994100;28;20042;-75
2021/12/22 10:59:45;;;;;;;16.48;9.88;;;;;;;;;;4995364;28;20128;-76
2021/12/22 11:02:27;;;;;;;18.92;9.77;;;;;;;;;;5010029;28;20047;-75
2021/12/22 11:05:03;;;;;;;17.90;9.20;;;;;;;;;;4994885;28;20042;-76
2021/12/22 11:07:41;;;;;;;21.02;9.90;;;;;;;;;;4993818;28;20047;-76
2021/12/22 11:10:26;;;;;;;18.05;9.95;;;;;;;;;;4994532;28;20066;-76
2021/12/22 11:13:06;;;;;;;16.80;10.65;;;;;;;;;;5009745;28;20474;-76
2021/12/22 11:15:42;;;;;;;16.20;9.30;;;;;;;;;;4995325;28;20069;-76
2021/12/22 11:18:30;;;;;;;17.58;9.57;;;;;;;;;;5009850;28;20468;-76
2021/12/22 11:21:12;;;;;;;20.52;11.55;;;;;;;;;;5010370;28;20101;-76
2021/12/22 11:23:40;;;;;;;16.58;9.95;;;;;;;;;;4994967;28;20561;-76
2021/12/22 11:26:08;;;;;;;16.58;9.43;;;;;;;;;;4993302;28;20038;-76
2021/12/22 11:28:36;;;;;;;18.42;8.90;;;;;;;;;;4994322;28;20119;-76
2021/12/22 11:31:09;;;;;;;18.65;10.23;;;;;;;;;;4981078;28;20050;-76
2021/12/22 11:33:48;;;;;;;;;;;;;;;;;;5014443;28;20553;-76
2021/12/22 11:36:18;;;;;;;14.05;8.63;;;;;;;;;;5014079;28;20011;-76
2021/12/22 11:38:45;;;;;;;15.00;9.10;;;;;;;;;;4996330;28;20046;-75
2021/12/22 11:41:54;;;;;;;17.67;9.55;;;;;;;;;;5012407;28;20100;-76
2021/12/22 11:44:27;;;;;;;16.65;9.45;;;;;;;;;;5013672;28;20129;-76
2021/12/22 11:47:03;;;;;;;16.58;9.07;;;;;;;;;;4980309;28;20096;-76
2021/12/22 11:49:34;;;;;;;14.23;9.20;;;;;;;;;;5013932;28;20065;-77
2021/12/22 11:52:03;;;;;;;16.30;8.70;;;;;;;;;;5013877;28;20050;-76
2021/12/22 11:54:33;;;;;;;16.75;9.30;;;;;;;;;;5013688;28;20048;-76
2021/12/22 11:57:18;;;;;;;18.98;10.60;;;;;;;;;;5014316;28;20125;-75
2021/12/22 11:59:50;;;;;;;14.23;8.70;;;;;;;;;;5012403;28;20133;-76
2021/12/22 12:02:55;;;;;;;15.48;9.00;;;;;;;;;;5013937;28;20452;-76
2021/12/22 12:05:48;;;;;;;15.35;9.13;;;;;;;;;;4995766;28;20046;-76
2021/12/22 12:08:43;;;;;;;15.00;9.68;;;;;;;;;;5013725;28;20137;-76
2021/12/22 12:11:16;;;;;;;16.20;9.15;;;;;;;;;;5019253;28;20061;-76
2021/12/22 12:13:55;;;;;;;15.35;9.77;;;;;;;;;;5016036;28;20061;-76
2021/12/22 12:22:22;;;;;;;16.85;8.65;;;;;;;;;;5012262;28;20050;-76
2021/12/22 12:25:15;;;;;;;13.32;8.20;;;;;;;;;;5012032;28;20544;-76
2021/12/22 12:28:08;;;;;;;15.75;8.13;;;;;;;;;;4995772;28;20072;-76
2021/12/22 12:30:43;;;;;;;15.93;9.27;;;;;;;;;;4992652;28;20050;-77
2021/12/22 12:33:44;;;;;;;13.40;8.85;;;;;;;;;;4992644;28;20452;-77
2021/12/22 12:36:16;;;;;;;14.38;8.15;;;;;;;;;;5008741;28;20468;-75
2021/12/22 12:38:46;;;;;;;21.42;9.82;;;;;;;;;;5009205;28;20467;-76
2021/12/22 12:41:19;;;;;;;15.77;8.77;;;;;;;;;;4993766;28;20047;-77
2021/12/22 12:43:56;;;;;;;15.73;9.48;;;;;;;;;;5008613;28;20092;-77
2021/12/22 12:46:49;;;;;;;17.85;10.55;;;;;;;;;;4993455;28;20046;-77
2021/12/22 12:49:43;;;;;;;20.60;10.23;;;;;;;;;;4993905;28;20046;-77
2021/12/22 12:52:21;;;;;;;16.42;10.15;;;;;;;;;;4992494;28;20054;-77
2021/12/22 12:55:08;;;;;;;15.95;9.32;;;;;;;;;;4994447;28;20126;-77
2021/12/22 12:57:35;;;;;;;17.33;9.65;;;;;;;;;;4997787;28;20050;-77
2021/12/22 13:00:19;;;;;;;19.48;9.35;;;;;;;;;;4996862;28;20113;-76
2021/12/22 13:03:03;;;;;;;14.27;8.52;;;;;;;;;;4997674;28;20046;-77
2021/12/22 13:05:40;;;;;;;20.95;8.35;;;;;;;;;;4997375;28;20042;-76
2021/12/22 13:08:08;;;;;;;13.95;8.35;;;;;;;;;;4996281;28;20100;-77
2021/12/22 13:11:01;;;;;;;14.10;8.38;;;;;;;;;;4997331;28;20038;-77
2021/12/22 13:17:59;;;;;;;12.93;8.40;;;;;;;;;;4994994;28;20117;-76
2021/12/22 13:20:28;;;;;;;12.57;9.00;;;;;;;;;;4997072;28;20489;-77
2021/12/22 13:23:02;;;;;;;16.42;9.13;;;;;;;;;;4979680;28;20146;-76
2021/12/22 13:25:39;;;;;;;13.80;8.90;;;;;;;;;;5012022;28;20571;-76
2021/12/22 13:28:11;;;;;;;17.88;10.05;;;;;;;;;;5011943;28;20133;-76
2021/12/22 13:30:42;;;;;;;23.98;11.48;;;;;;;;;;4995282;28;20062;-76
2021/12/22 13:33:17;;;;;;;31.48;18.15;;;;;;;;;;4996934;28;20061;-77
2021/12/22 13:35:46;;;;;;;33.25;19.20;;;;;;;;;;4980057;28;20460;-77
2021/12/22 13:38:20;;;;;;;34.85;19.58;;;;;;;;;;4995157;28;20045;-76
2021/12/22 13:40:50;;;;;;;33.63;17.27;;;;;;;;;;4995401;28;20074;-76
2021/12/22 13:43:43;;;;;;;32.40;16.10;;;;;;;;;;4997425;28;20047;-75
2021/12/22 13:46:36;;;;;;;27.65;15.45;;;;;;;;;;5011796;28;20042;-76
2021/12/22 13:49:12;;;;;;;30.23;15.27;;;;;;;;;;4996555;28;20068;-77
2021/12/22 13:51:53;;;;;;;26.23;12.70;;;;;;;;;;4996252;28;20058;-77
2021/12/22 13:54:24;;;;;;;21.27;11.20;;;;;;;;;;4996929;28;20529;-76
2021/12/22 13:56:56;;;;;;;17.73;10.05;;;;;;;;;;4995573;28;20050;-76
2021/12/22 13:59:28;;;;;;;18.17;10.20;;;;;;;;;;4995194;28;20046;-76
2021/12/22 14:02:02;;;;;;;20.63;11.10;;;;;;;;;;4995209;28;20051;-78
2021/12/22 14:04:37;;;;;;;19.60;11.10;;;;;;;;;;4996856;28;20042;-76
2021/12/22 14:07:10;;;;;;;17.85;10.18;;;;;;;;;;4996283;28;20047;-76
2021/12/22 14:09:50;;;;;;;21.25;10.27;;;;;;;;;;4994757;28;20141;-76
2021/12/22 14:12:25;;;;;;;22.80;12.27;;;;;;;;;;4995112;28;20047;-77
2021/12/22 14:14:59;;;;;;;24.17;13.77;;;;;;;;;;4979218;28;20042;-76
2021/12/22 14:17:37;;;;;;;25.98;12.63;;;;;;;;;;4995004;28;20100;-77
2021/12/22 14:20:11;;;;;;;25.60;12.65;;;;;;;;;;4994477;28;20105;-76
2021/12/22 14:22:42;;;;;;;27.33;13.85;;;;;;;;;;4994934;28;20481;-75
2021/12/22 14:25:14;;;;;;;25.17;13.98;;;;;;;;;;4994689;28;20042;-76
2021/12/22 14:27:53;;;;;;;23.60;15.27;;;;;;;;;;4995686;28;20035;-76
2021/12/22 14:30:22;;;;;;;27.33;13.85;;;;;;;;;;5010177;28;20128;-76
2021/12/22 14:33:02;;;;;;;20.65;11.48;;;;;;;;;;4998047;28;20137;-76
2021/12/22 14:35:35;;;;;;;30.58;13.65;;;;;;;;;;5013940;28;20046;-76
2021/12/22 14:38:17;;;;;;;28.15;14.13;;;;;;;;;;4997870;28;20088;-76
2021/12/22 14:40:57;;;;;;;24.27;14.30;;;;;;;;;;5015059;28;20046;-75
2021/12/22 14:43:40;;;;;;;30.02;14.23;;;;;;;;;;5013725;28;20050;-77
2021/12/22 14:46:09;;;;;;;29.42;14.25;;;;;;;;;;4997623;28;20069;-80
2021/12/22 14:48:46;;;;;;;27.30;13.95;;;;;;;;;;5015254;28;20128;-80
2021/12/22 14:51:21;;;;;;;28.40;13.95;;;;;;;;;;4981340;28;20054;-81
2021/12/22 14:54:01;;;;;;;30.05;14.38;;;;;;;;;;5015594;28;20065;-80
2021/12/22 14:56:41;;;;;;;28.95;15.40;;;;;;;;;;4981372;28;20056;-78
2021/12/22 14:59:12;;;;;;;28.15;15.65;;;;;;;;;;4997433;28;20060;-78
2021/12/22 15:01:44;;;;;;;30.65;16.08;;;;;;;;;;4997318;28;20493;-78
2021/12/22 15:04:14;;;;;;;29.13;16.95;;;;;;;;;;4981440;28;20030;-78
2021/12/22 15:06:45;;;;;;;32.00;17.60;;;;;;;;;;5013442;28;20046;-78
2021/12/22 15:09:15;;;;;;;34.83;18.27;;;;;;;;;;5014685;28;20088;-79
2021/12/22 15:11:46;;;;;;;31.77;19.52;;;;;;;;;;5015043;28;20046;-81
2021/12/22 15:14:15;;;;;;;32.50;18.80;;;;;;;;;;5015161;28;20069;-79
2021/12/22 15:16:44;;;;;;;33.60;17.42;;;;;;;;;;4996996;28;20424;-85
2021/12/22 15:19:16;;;;;;;35.15;19.92;;;;;;;;;;4998611;28;20412;-81
2021/12/22 15:21:46;;;;;;;41.05;22.83;;;;;;;;;;5015083;28;20060;-82
2021/12/22 15:24:15;;;;;;;47.03;23.67;;;;;;;;;;5015186;28;20081;-82
2021/12/22 15:26:46;;;;;;;48.10;22.90;;;;;;;;;;4999234;28;20054;-82
2021/12/22 15:29:14;;;;;;;49.20;25.58;;;;;;;;;;5016642;28;20103;-85
2021/12/22 15:31:43;;;;;;;50.97;28.40;;;;;;;;;;5015782;28;20050;-78
2021/12/22 15:34:13;;;;;;;49.28;26.42;;;;;;;;;;4997302;28;20129;-87
2021/12/22 15:36:55;;;;;;;32.97;16.95;;;;;;;;;;4999156;28;20044;-88
2021/12/22 15:39:23;;;;;;;26.23;15.75;;;;;;;;;;5014800;28;20036;-88
2021/12/22 15:42:00;;;;;;;23.42;14.07;;;;;;;;;;4972751;28;20096;-87
2021/12/22 15:44:28;;;;;;;26.42;14.90;;;;;;;;;;4989021;28;20088;-84
2021/12/22 15:50:08;;;;;;;27.33;13.73;;;;;;;;;;5013900;28;20100;-84
2021/12/22 15:53:01;;;;;;;29.92;15.63;;;;;;;;;;4996283;28;20041;-84
2021/12/22 15:55:33;;;;;;;32.35;16.50;;;;;;;;;;5014265;28;20042;-83
2021/12/22 15:58:11;;;;;;;36.97;20.00;;;;;;;;;;5014112;28;20072;-84
2021/12/22 16:00:44;;;;;;;41.72;22.27;;;;;;;;;;4996077;28;20042;-84
2021/12/22 16:03:12;;;;;;;40.75;21.65;;;;;;;;;;4996925;28;20042;-84
2021/12/22 16:08:53;;;;;;;49.83;27.85;;;;;;;;;;5017359;28;20045;-87
2021/12/22 16:11:46;;;;;;;51.33;30.38;;;;;;;;;;4997311;28;20141;-87
2021/12/22 16:14:13;;;;;;;47.60;26.45;;;;;;;;;;5013762;28;20270;-87
2021/12/22 16:16:41;;;;;;;57.83;31.48;;;;;;;;;;4996343;28;20085;-86